weather.gov     
National Weather Service

Terminal Aerodrome Forecast
NWS Homepage
This page is being discontinued on March 12, 2014.
The same data is available at this site. Please update your bookmarks.
Thank you, and we apologize for the inconvenience.
Please send an email to SR-SRH.Webmaster@noaa.gov with any concerns.


Current Version
Previous Version:    01  02  03  04  05  06  07  08  09  10  11  12  13  14  15  16  17  18  19  20  21  22  23  24  25  26  27  28  29  30  
   31  
[Printable]
066
FTUS46 KLOX 010900 AAA
TAFPMD
TAF AMD
KPMD 010943Z 0110/0206 22015KT P6SM -SHRA SCT025 OVC040
     FM011300 26015KT P6SM VCSH SCT040 BKN080
     FM011500 26013KT P6SM OVC050
     FM011800 26015G25KT P6SM BKN050
     FM012000 26020G28KT P6SM BKN050
     FM020200 26012G22KT P6SM BKN050=


U.S. Dept. of Commerce
NOAA National Weather Service
1325 East West Highway
Silver Spring, MD 20910
E-mail: w-nws.webmaster@noaa.gov
Page last modified: May 16, 2007
NATIONAL WEATHER SERVICE: for Safety, for Work, for Fun - FOR LIFE